sensor_id;sensor_type;location;lat;lon;timestamp;P1;durP1;ratioP1;P2;durP2;ratioP2
31270;SDS011;17904;47.420;9.310;2022-10-15T00:00:47;0.20;;;0.20;;
31270;SDS011;17904;47.420;9.310;2022-10-15T00:03:14;1.77;;;0.40;;
31270;SDS011;17904;47.420;9.310;2022-10-15T00:05:41;3.60;;;0.40;;
31270;SDS011;17904;47.420;9.310;2022-10-15T00:08:08;0.77;;;0.30;;
31270;SDS011;17904;47.420;9.310;2022-10-15T00:10:36;1.15;;;0.30;;
31270;SDS011;17904;47.420;9.310;2022-10-15T00:13:04;0.30;;;0.30;;
31270;SDS011;17904;47.420;9.310;2022-10-15T00:15:31;0.20;;;0.20;;
31270;SDS011;17904;47.420;9.310;2022-10-15T00:18:00;0.30;;;0.30;;
31270;SDS011;17904;47.420;9.310;2022-10-15T00:20:27;0.30;;;0.30;;
31270;SDS011;17904;47.420;9.310;2022-10-15T00:25:20;0.73;;;0.38;;
31270;SDS011;17904;47.420;9.310;2022-10-15T00:27:47;0.50;;;0.30;;
31270;SDS011;17904;47.420;9.310;2022-10-15T00:30:14;0.55;;;0.40;;
31270;SDS011;17904;47.420;9.310;2022-10-15T00:32:42;0.32;;;0.20;;
31270;SDS011;17904;47.420;9.310;2022-10-15T00:35:09;0.20;;;0.20;;
31270;SDS011;17904;47.420;9.310;2022-10-15T00:40:02;3.47;;;0.30;;
31270;SDS011;17904;47.420;9.310;2022-10-15T00:42:31;0.65;;;0.40;;
31270;SDS011;17904;47.420;9.310;2022-10-15T00:50:08;0.60;;;0.40;;
31270;SDS011;17904;47.420;9.310;2022-10-15T00:55:21;0.30;;;0.30;;
31270;SDS011;17904;47.420;9.310;2022-10-15T00:57:52;0.25;;;0.25;;
31270;SDS011;17904;47.420;9.310;2022-10-15T01:00:23;0.32;;;0.32;;
31270;SDS011;17904;47.420;9.310;2022-10-15T01:05:16;0.73;;;0.20;;
31270;SDS011;17904;47.420;9.310;2022-10-15T01:07:44;0.20;;;0.20;;
31270;SDS011;17904;47.420;9.310;2022-10-15T01:10:13;5.10;;;0.55;;
31270;SDS011;17904;47.420;9.310;2022-10-15T01:15:50;2.97;;;0.40;;
31270;SDS011;17904;47.420;9.310;2022-10-15T01:18:28;0.47;;;0.47;;
31270;SDS011;17904;47.420;9.310;2022-10-15T01:24:05;0.50;;;0.50;;
31270;SDS011;17904;47.420;9.310;2022-10-15T01:34:33;0.30;;;0.22;;
31270;SDS011;17904;47.420;9.310;2022-10-15T01:40:35;0.95;;;0.50;;
31270;SDS011;17904;47.420;9.310;2022-10-15T01:43:27;0.50;;;0.22;;
31270;SDS011;17904;47.420;9.310;2022-10-15T01:46:19;0.20;;;0.20;;
31270;SDS011;17904;47.420;9.310;2022-10-15T01:49:06;0.45;;;0.20;;
31270;SDS011;17904;47.420;9.310;2022-10-15T01:51:35;3.20;;;0.20;;
31270;SDS011;17904;47.420;9.310;2022-10-15T01:54:04;0.30;;;0.20;;
31270;SDS011;17904;47.420;9.310;2022-10-15T01:56:35;0.52;;;0.47;;
31270;SDS011;17904;47.420;9.310;2022-10-15T01:59:03;2.72;;;0.63;;
31270;SDS011;17904;47.420;9.310;2022-10-15T02:01:32;0.32;;;0.32;;
31270;SDS011;17904;47.420;9.310;2022-10-15T02:03:59;2.78;;;0.38;;
31270;SDS011;17904;47.420;9.310;2022-10-15T02:06:31;0.57;;;0.40;;
31270;SDS011;17904;47.420;9.310;2022-10-15T02:16:55;4.80;;;0.70;;
31270;SDS011;17904;47.420;9.310;2022-10-15T02:24:32;0.20;;;0.20;;
31270;SDS011;17904;47.420;9.310;2022-10-15T02:27:04;0.38;;;0.38;;
31270;SDS011;17904;47.420;9.310;2022-10-15T02:29:33;0.50;;;0.50;;
31270;SDS011;17904;47.420;9.310;2022-10-15T02:32:04;2.38;;;0.40;;
31270;SDS011;17904;47.420;9.310;2022-10-15T02:34:32;1.75;;;0.80;;
31270;SDS011;17904;47.420;9.310;2022-10-15T02:37:01;1.00;;;0.63;;
31270;SDS011;17904;47.420;9.310;2022-10-15T02:39:32;0.60;;;0.35;;
31270;SDS011;17904;47.420;9.310;2022-10-15T02:41:59;0.30;;;0.30;;
31270;SDS011;17904;47.420;9.310;2022-10-15T02:44:26;1.00;;;0.43;;
31270;SDS011;17904;47.420;9.310;2022-10-15T02:49:21;1.38;;;0.38;;
31270;SDS011;17904;47.420;9.310;2022-10-15T02:51:49;1.67;;;0.60;;
31270;SDS011;17904;47.420;9.310;2022-10-15T02:56:45;2.83;;;0.40;;
31270;SDS011;17904;47.420;9.310;2022-10-15T02:59:13;0.20;;;0.20;;
31270;SDS011;17904;47.420;9.310;2022-10-15T03:01:40;5.13;;;0.40;;
31270;SDS011;17904;47.420;9.310;2022-10-15T03:04:07;0.30;;;0.30;;
31270;SDS011;17904;47.420;9.310;2022-10-15T03:06:35;0.57;;;0.40;;
31270;SDS011;17904;47.420;9.310;2022-10-15T03:09:03;0.38;;;0.38;;
31270;SDS011;17904;47.420;9.310;2022-10-15T03:11:30;4.32;;;0.60;;
31270;SDS011;17904;47.420;9.310;2022-10-15T03:13:57;0.52;;;0.52;;
31270;SDS011;17904;47.420;9.310;2022-10-15T03:18:51;6.50;;;0.40;;
31270;SDS011;17904;47.420;9.310;2022-10-15T03:21:18;5.03;;;0.43;;
31270;SDS011;17904;47.420;9.310;2022-10-15T03:23:45;1.20;;;0.43;;
31270;SDS011;17904;47.420;9.310;2022-10-15T03:26:17;3.22;;;0.68;;
31270;SDS011;17904;47.420;9.310;2022-10-15T03:31:17;1.83;;;0.40;;
31270;SDS011;17904;47.420;9.310;2022-10-15T03:33:47;1.65;;;0.35;;
31270;SDS011;17904;47.420;9.310;2022-10-15T03:36:16;0.30;;;0.30;;
31270;SDS011;17904;47.420;9.310;2022-10-15T03:38:43;6.13;;;0.57;;
31270;SDS011;17904;47.420;9.310;2022-10-15T03:41:12;0.98;;;0.43;;
31270;SDS011;17904;47.420;9.310;2022-10-15T03:43:40;1.17;;;0.30;;
31270;SDS011;17904;47.420;9.310;2022-10-15T03:46:08;0.70;;;0.65;;
31270;SDS011;17904;47.420;9.310;2022-10-15T03:48:39;5.40;;;0.55;;
31270;SDS011;17904;47.420;9.310;2022-10-15T03:51:08;4.90;;;0.55;;
31270;SDS011;17904;47.420;9.310;2022-10-15T03:53:37;0.17;;;0.17;;
31270;SDS011;17904;47.420;9.310;2022-10-15T03:56:05;4.80;;;2.17;;
31270;SDS011;17904;47.420;9.310;2022-10-15T03:58:35;1.17;;;0.70;;
31270;SDS011;17904;47.420;9.310;2022-10-15T04:01:07;9.73;;;0.50;;
31270;SDS011;17904;47.420;9.310;2022-10-15T04:03:36;4.22;;;0.28;;
31270;SDS011;17904;47.420;9.310;2022-10-15T04:06:03;1.95;;;0.45;;
31270;SDS011;17904;47.420;9.310;2022-10-15T04:08:31;2.25;;;0.47;;
31270;SDS011;17904;47.420;9.310;2022-10-15T04:10:58;0.30;;;0.22;;
31270;SDS011;17904;47.420;9.310;2022-10-15T04:13:25;0.43;;;0.30;;
31270;SDS011;17904;47.420;9.310;2022-10-15T04:15:53;1.15;;;0.30;;
31270;SDS011;17904;47.420;9.310;2022-10-15T04:18:21;0.20;;;0.20;;
31270;SDS011;17904;47.420;9.310;2022-10-15T04:20:51;0.40;;;0.40;;
31270;SDS011;17904;47.420;9.310;2022-10-15T04:23:21;0.20;;;0.20;;
31270;SDS011;17904;47.420;9.310;2022-10-15T04:26:06;3.80;;;0.30;;
31270;SDS011;17904;47.420;9.310;2022-10-15T04:28:34;4.03;;;0.30;;
31270;SDS011;17904;47.420;9.310;2022-10-15T04:31:02;0.85;;;0.30;;
31270;SDS011;17904;47.420;9.310;2022-10-15T04:33:29;0.95;;;0.40;;
31270;SDS011;17904;47.420;9.310;2022-10-15T04:36:05;0.95;;;0.30;;
31270;SDS011;17904;47.420;9.310;2022-10-15T04:41:19;4.22;;;0.43;;
31270;SDS011;17904;47.420;9.310;2022-10-15T04:44:09;0.77;;;0.30;;
31270;SDS011;17904;47.420;9.310;2022-10-15T04:46:37;0.90;;;0.45;;
31270;SDS011;17904;47.420;9.310;2022-10-15T04:49:24;0.20;;;0.20;;
31270;SDS011;17904;47.420;9.310;2022-10-15T04:51:51;0.77;;;0.40;;
31270;SDS011;17904;47.420;9.310;2022-10-15T04:54:54;1.23;;;0.40;;
31270;SDS011;17904;47.420;9.310;2022-10-15T04:59:48;0.73;;;0.50;;
31270;SDS011;17904;47.420;9.310;2022-10-15T05:02:30;0.88;;;0.40;;
31270;SDS011;17904;47.420;9.310;2022-10-15T05:05:13;0.30;;;0.30;;
31270;SDS011;17904;47.420;9.310;2022-10-15T05:07:48;0.95;;;0.30;;
31270;SDS011;17904;47.420;9.310;2022-10-15T05:12:42;1.65;;;0.40;;
31270;SDS011;17904;47.420;9.310;2022-10-15T05:15:09;0.43;;;0.43;;
31270;SDS011;17904;47.420;9.310;2022-10-15T05:17:36;1.30;;;0.40;;
31270;SDS011;17904;47.420;9.310;2022-10-15T05:22:30;0.40;;;0.40;;
31270;SDS011;17904;47.420;9.310;2022-10-15T05:24:58;3.40;;;0.40;;
31270;SDS011;17904;47.420;9.310;2022-10-15T05:27:34;1.00;;;0.32;;
31270;SDS011;17904;47.420;9.310;2022-10-15T05:30:02;1.08;;;0.60;;
31270;SDS011;17904;47.420;9.310;2022-10-15T05:32:45;0.40;;;0.40;;
31270;SDS011;17904;47.420;9.310;2022-10-15T05:35:16;0.60;;;0.60;;
31270;SDS011;17904;47.420;9.310;2022-10-15T05:38:00;0.50;;;0.50;;
31270;SDS011;17904;47.420;9.310;2022-10-15T05:43:02;1.20;;;0.50;;
31270;SDS011;17904;47.420;9.310;2022-10-15T05:45:29;5.93;;;0.57;;
31270;SDS011;17904;47.420;9.310;2022-10-15T05:48:01;0.32;;;0.32;;
31270;SDS011;17904;47.420;9.310;2022-10-15T05:50:28;0.40;;;0.40;;
31270;SDS011;17904;47.420;9.310;2022-10-15T05:52:56;3.40;;;0.45;;
31270;SDS011;17904;47.420;9.310;2022-10-15T05:55:46;0.40;;;0.40;;
31270;SDS011;17904;47.420;9.310;2022-10-15T05:58:13;1.75;;;0.60;;
31270;SDS011;17904;47.420;9.310;2022-10-15T06:00:40;0.80;;;0.50;;
31270;SDS011;17904;47.420;9.310;2022-10-15T06:05:36;0.60;;;0.60;;
31270;SDS011;17904;47.420;9.310;2022-10-15T06:08:03;1.13;;;0.70;;
31270;SDS011;17904;47.420;9.310;2022-10-15T06:10:29;1.77;;;0.65;;
31270;SDS011;17904;47.420;9.310;2022-10-15T06:12:59;0.57;;;0.57;;
31270;SDS011;17904;47.420;9.310;2022-10-15T06:17:53;0.40;;;0.40;;
31270;SDS011;17904;47.420;9.310;2022-10-15T06:22:46;0.75;;;0.75;;
31270;SDS011;17904;47.420;9.310;2022-10-15T06:25:13;1.08;;;0.70;;
31270;SDS011;17904;47.420;9.310;2022-10-15T06:30:07;2.90;;;0.80;;
31270;SDS011;17904;47.420;9.310;2022-10-15T06:32:34;3.35;;;0.55;;
31270;SDS011;17904;47.420;9.310;2022-10-15T06:35:01;1.88;;;0.63;;
31270;SDS011;17904;47.420;9.310;2022-10-15T06:39:57;2.20;;;0.47;;
31270;SDS011;17904;47.420;9.310;2022-10-15T06:42:23;0.85;;;0.60;;
31270;SDS011;17904;47.420;9.310;2022-10-15T06:44:53;1.02;;;0.63;;
31270;SDS011;17904;47.420;9.310;2022-10-15T06:49:48;0.45;;;0.45;;
31270;SDS011;17904;47.420;9.310;2022-10-15T06:54:42;1.45;;;0.63;;
31270;SDS011;17904;47.420;9.310;2022-10-15T06:57:09;5.22;;;0.52;;
31270;SDS011;17904;47.420;9.310;2022-10-15T07:02:09;0.60;;;0.60;;
31270;SDS011;17904;47.420;9.310;2022-10-15T07:04:39;5.25;;;0.70;;
31270;SDS011;17904;47.420;9.310;2022-10-15T07:07:06;5.95;;;1.15;;
31270;SDS011;17904;47.420;9.310;2022-10-15T07:09:32;0.95;;;0.50;;
31270;SDS011;17904;47.420;9.310;2022-10-15T07:12:00;1.15;;;0.63;;
31270;SDS011;17904;47.420;9.310;2022-10-15T07:14:27;7.72;;;0.60;;
31270;SDS011;17904;47.420;9.310;2022-10-15T07:16:54;2.25;;;1.75;;
31270;SDS011;17904;47.420;9.310;2022-10-15T07:21:48;1.35;;;0.65;;
31270;SDS011;17904;47.420;9.310;2022-10-15T07:24:16;2.05;;;0.80;;
31270;SDS011;17904;47.420;9.310;2022-10-15T07:29:09;3.38;;;0.57;;
31270;SDS011;17904;47.420;9.310;2022-10-15T07:31:36;0.77;;;0.50;;
31270;SDS011;17904;47.420;9.310;2022-10-15T07:36:29;0.93;;;0.60;;
31270;SDS011;17904;47.420;9.310;2022-10-15T07:38:56;1.05;;;0.65;;
31270;SDS011;17904;47.420;9.310;2022-10-15T07:41:23;2.97;;;0.60;;
31270;SDS011;17904;47.420;9.310;2022-10-15T07:43:50;6.15;;;1.08;;
31270;SDS011;17904;47.420;9.310;2022-10-15T07:46:18;3.60;;;1.13;;
31270;SDS011;17904;47.420;9.310;2022-10-15T07:48:51;7.38;;;3.20;;
31270;SDS011;17904;47.420;9.310;2022-10-15T07:51:18;2.17;;;1.00;;
31270;SDS011;17904;47.420;9.310;2022-10-15T07:56:13;1.67;;;0.65;;
31270;SDS011;17904;47.420;9.310;2022-10-15T07:58:41;1.65;;;0.93;;
31270;SDS011;17904;47.420;9.310;2022-10-15T08:01:08;3.00;;;1.50;;
31270;SDS011;17904;47.420;9.310;2022-10-15T08:03:36;1.20;;;0.80;;
31270;SDS011;17904;47.420;9.310;2022-10-15T08:06:03;0.80;;;0.73;;
31270;SDS011;17904;47.420;9.310;2022-10-15T08:08:32;0.75;;;0.73;;
31270;SDS011;17904;47.420;9.310;2022-10-15T08:11:07;0.88;;;0.68;;
31270;SDS011;17904;47.420;9.310;2022-10-15T08:13:36;0.73;;;0.47;;
31270;SDS011;17904;47.420;9.310;2022-10-15T08:16:07;0.55;;;0.55;;
31270;SDS011;17904;47.420;9.310;2022-10-15T08:18:34;1.20;;;0.60;;
31270;SDS011;17904;47.420;9.310;2022-10-15T08:21:03;1.75;;;0.60;;
31270;SDS011;17904;47.420;9.310;2022-10-15T08:23:31;1.65;;;0.60;;
31270;SDS011;17904;47.420;9.310;2022-10-15T08:28:29;3.00;;;0.52;;
31270;SDS011;17904;47.420;9.310;2022-10-15T08:30:57;1.75;;;0.73;;
31270;SDS011;17904;47.420;9.310;2022-10-15T08:33:31;1.55;;;0.80;;
31270;SDS011;17904;47.420;9.310;2022-10-15T08:35:59;11.27;;;0.70;;
31270;SDS011;17904;47.420;9.310;2022-10-15T08:38:26;6.40;;;0.73;;
31270;SDS011;17904;47.420;9.310;2022-10-15T08:46:17;1.42;;;0.60;;
31270;SDS011;17904;47.420;9.310;2022-10-15T08:48:52;0.85;;;0.40;;
31270;SDS011;17904;47.420;9.310;2022-10-15T08:51:22;0.93;;;0.60;;
31270;SDS011;17904;47.420;9.310;2022-10-15T08:53:53;1.13;;;0.60;;
31270;SDS011;17904;47.420;9.310;2022-10-15T08:56:38;4.40;;;0.70;;
31270;SDS011;17904;47.420;9.310;2022-10-15T09:02:01;1.95;;;0.70;;
31270;SDS011;17904;47.420;9.310;2022-10-15T09:04:37;8.77;;;1.00;;
31270;SDS011;17904;47.420;9.310;2022-10-15T09:07:31;1.15;;;0.80;;
31270;SDS011;17904;47.420;9.310;2022-10-15T09:10:15;4.18;;;0.98;;
31270;SDS011;17904;47.420;9.310;2022-10-15T09:13:07;1.65;;;0.70;;
31270;SDS011;17904;47.420;9.310;2022-10-15T09:15:50;2.65;;;0.77;;
31270;SDS011;17904;47.420;9.310;2022-10-15T09:18:26;1.52;;;0.65;;
31270;SDS011;17904;47.420;9.310;2022-10-15T09:20:57;0.65;;;0.55;;
31270;SDS011;17904;47.420;9.310;2022-10-15T09:23:26;0.98;;;0.50;;
31270;SDS011;17904;47.420;9.310;2022-10-15T09:28:29;1.45;;;0.40;;
31270;SDS011;17904;47.420;9.310;2022-10-15T09:31:03;0.50;;;0.50;;
31270;SDS011;17904;47.420;9.310;2022-10-15T09:38:59;2.58;;;0.75;;
31270;SDS011;17904;47.420;9.310;2022-10-15T09:41:35;1.10;;;0.65;;
31270;SDS011;17904;47.420;9.310;2022-10-15T09:44:19;0.85;;;0.75;;
31270;SDS011;17904;47.420;9.310;2022-10-15T09:46:50;1.50;;;0.50;;
31270;SDS011;17904;47.420;9.310;2022-10-15T09:49:22;2.15;;;0.45;;
31270;SDS011;17904;47.420;9.310;2022-10-15T09:52:01;0.40;;;0.40;;
31270;SDS011;17904;47.420;9.310;2022-10-15T09:57:16;0.95;;;0.50;;
31270;SDS011;17904;47.420;9.310;2022-10-15T09:59:59;4.43;;;0.60;;
31270;SDS011;17904;47.420;9.310;2022-10-15T10:02:37;8.02;;;1.00;;
31270;SDS011;17904;47.420;9.310;2022-10-15T10:08:17;6.25;;;0.85;;
31270;SDS011;17904;47.420;9.310;2022-10-15T10:11:09;2.75;;;0.85;;
31270;SDS011;17904;47.420;9.310;2022-10-15T10:13:44;0.63;;;0.38;;
31270;SDS011;17904;47.420;9.310;2022-10-15T10:16:15;2.40;;;0.52;;
31270;SDS011;17904;47.420;9.310;2022-10-15T10:18:44;6.78;;;0.63;;
31270;SDS011;17904;47.420;9.310;2022-10-15T10:21:40;5.55;;;0.88;;
31270;SDS011;17904;47.420;9.310;2022-10-15T10:26:45;3.00;;;0.63;;
31270;SDS011;17904;47.420;9.310;2022-10-15T10:29:16;5.32;;;0.65;;
31270;SDS011;17904;47.420;9.310;2022-10-15T10:31:59;4.75;;;0.68;;
31270;SDS011;17904;47.420;9.310;2022-10-15T10:34:42;3.53;;;0.63;;
31270;SDS011;17904;47.420;9.310;2022-10-15T10:37:16;0.50;;;0.50;;
31270;SDS011;17904;47.420;9.310;2022-10-15T10:39:43;0.80;;;0.40;;
31270;SDS011;17904;47.420;9.310;2022-10-15T10:44:45;3.80;;;0.60;;
31270;SDS011;17904;47.420;9.310;2022-10-15T10:49:51;1.55;;;0.50;;
31270;SDS011;17904;47.420;9.310;2022-10-15T10:54:56;0.95;;;0.50;;
31270;SDS011;17904;47.420;9.310;2022-10-15T10:57:33;1.13;;;0.70;;
31270;SDS011;17904;47.420;9.310;2022-10-15T11:00:06;0.73;;;0.70;;
31270;SDS011;17904;47.420;9.310;2022-10-15T11:02:37;2.08;;;0.80;;
31270;SDS011;17904;47.420;9.310;2022-10-15T11:05:10;1.10;;;0.70;;
31270;SDS011;17904;47.420;9.310;2022-10-15T11:07:43;1.55;;;0.52;;
31270;SDS011;17904;47.420;9.310;2022-10-15T11:10:40;1.20;;;0.70;;
31270;SDS011;17904;47.420;9.310;2022-10-15T11:16:10;1.33;;;0.70;;
31270;SDS011;17904;47.420;9.310;2022-10-15T11:18:46;1.25;;;0.93;;
31270;SDS011;17904;47.420;9.310;2022-10-15T11:24:13;0.50;;;0.40;;
31270;SDS011;17904;47.420;9.310;2022-10-15T11:26:57;1.42;;;0.50;;
31270;SDS011;17904;47.420;9.310;2022-10-15T11:40:46;0.82;;;0.60;;
31270;SDS011;17904;47.420;9.310;2022-10-15T11:46:37;2.22;;;0.40;;
31270;SDS011;17904;47.420;9.310;2022-10-15T11:54:41;0.85;;;0.70;;
31270;SDS011;17904;47.420;9.310;2022-10-15T11:57:13;0.50;;;0.50;;
31270;SDS011;17904;47.420;9.310;2022-10-15T12:04:48;2.45;;;0.68;;
31270;SDS011;17904;47.420;9.310;2022-10-15T12:07:43;4.07;;;0.88;;
31270;SDS011;17904;47.420;9.310;2022-10-15T12:12:56;2.05;;;1.02;;
31270;SDS011;17904;47.420;9.310;2022-10-15T12:15:47;1.88;;;1.17;;
31270;SDS011;17904;47.420;9.310;2022-10-15T12:18:24;4.47;;;0.82;;
31270;SDS011;17904;47.420;9.310;2022-10-15T12:20:56;3.92;;;0.70;;
31270;SDS011;17904;47.420;9.310;2022-10-15T12:23:38;2.35;;;0.70;;
31270;SDS011;17904;47.420;9.310;2022-10-15T12:26:39;0.40;;;0.40;;
31270;SDS011;17904;47.420;9.310;2022-10-15T12:29:02;1.27;;;0.60;;
31270;SDS011;17904;47.420;9.310;2022-10-15T12:31:44;3.72;;;0.60;;
31270;SDS011;17904;47.420;9.310;2022-10-15T12:34:36;2.60;;;0.68;;
31270;SDS011;17904;47.420;9.310;2022-10-15T12:37:14;0.80;;;0.70;;
31270;SDS011;17904;47.420;9.310;2022-10-15T12:39:43;0.47;;;0.47;;
31270;SDS011;17904;47.420;9.310;2022-10-15T12:42:19;0.63;;;0.50;;
31270;SDS011;17904;47.420;9.310;2022-10-15T12:44:50;0.52;;;0.50;;
31270;SDS011;17904;47.420;9.310;2022-10-15T12:47:44;1.65;;;0.70;;
31270;SDS011;17904;47.420;9.310;2022-10-15T12:50:19;3.22;;;0.77;;
31270;SDS011;17904;47.420;9.310;2022-10-15T12:55:22;1.02;;;0.50;;
31270;SDS011;17904;47.420;9.310;2022-10-15T12:57:57;1.65;;;0.40;;
31270;SDS011;17904;47.420;9.310;2022-10-15T13:00:37;3.25;;;0.73;;
31270;SDS011;17904;47.420;9.310;2022-10-15T13:03:16;1.02;;;0.90;;
31270;SDS011;17904;47.420;9.310;2022-10-15T13:05:44;1.85;;;1.00;;
31270;SDS011;17904;47.420;9.310;2022-10-15T13:08:18;3.90;;;0.50;;
31270;SDS011;17904;47.420;9.310;2022-10-15T13:10:52;0.52;;;0.50;;
31270;SDS011;17904;47.420;9.310;2022-10-15T13:13:23;0.65;;;0.40;;
31270;SDS011;17904;47.420;9.310;2022-10-15T13:15:57;0.40;;;0.40;;
31270;SDS011;17904;47.420;9.310;2022-10-15T13:18:26;2.67;;;0.60;;
31270;SDS011;17904;47.420;9.310;2022-10-15T13:20:54;0.60;;;0.60;;
31270;SDS011;17904;47.420;9.310;2022-10-15T13:23:25;1.15;;;0.60;;
31270;SDS011;17904;47.420;9.310;2022-10-15T13:28:58;0.47;;;0.47;;
31270;SDS011;17904;47.420;9.310;2022-10-15T13:31:26;3.70;;;0.50;;
31270;SDS011;17904;47.420;9.310;2022-10-15T13:33:59;5.88;;;1.10;;
31270;SDS011;17904;47.420;9.310;2022-10-15T13:36:39;3.40;;;0.40;;
31270;SDS011;17904;47.420;9.310;2022-10-15T13:39:52;2.05;;;0.68;;
31270;SDS011;17904;47.420;9.310;2022-10-15T13:44:38;0.68;;;0.40;;
31270;SDS011;17904;47.420;9.310;2022-10-15T13:47:21;1.98;;;0.95;;
31270;SDS011;17904;47.420;9.310;2022-10-15T13:50:09;1.35;;;0.30;;
31270;SDS011;17904;47.420;9.310;2022-10-15T13:55:47;2.00;;;1.80;;
31270;SDS011;17904;47.420;9.310;2022-10-15T14:05:54;0.40;;;0.40;;
31270;SDS011;17904;47.420;9.310;2022-10-15T14:08:31;3.13;;;0.50;;
31270;SDS011;17904;47.420;9.310;2022-10-15T14:11:00;0.77;;;0.60;;
31270;SDS011;17904;47.420;9.310;2022-10-15T14:13:27;2.70;;;0.30;;
31270;SDS011;17904;47.420;9.310;2022-10-15T14:15:56;4.43;;;0.60;;
31270;SDS011;17904;47.420;9.310;2022-10-15T14:18:33;0.60;;;0.30;;
31270;SDS011;17904;47.420;9.310;2022-10-15T14:21:02;2.30;;;0.70;;
31270;SDS011;17904;47.420;9.310;2022-10-15T14:23:37;1.45;;;0.60;;
31270;SDS011;17904;47.420;9.310;2022-10-15T14:26:04;3.03;;;0.77;;
31270;SDS011;17904;47.420;9.310;2022-10-15T14:28:32;0.93;;;0.63;;
31270;SDS011;17904;47.420;9.310;2022-10-15T14:31:00;0.43;;;0.40;;
31270;SDS011;17904;47.420;9.310;2022-10-15T14:36:05;6.13;;;1.13;;
31270;SDS011;17904;47.420;9.310;2022-10-15T14:38:39;1.05;;;0.50;;
31270;SDS011;17904;47.420;9.310;2022-10-15T14:41:24;5.72;;;0.90;;
31270;SDS011;17904;47.420;9.310;2022-10-15T14:46:34;1.75;;;1.08;;
31270;SDS011;17904;47.420;9.310;2022-10-15T14:49:12;6.03;;;0.70;;
31270;SDS011;17904;47.420;9.310;2022-10-15T14:51:44;6.18;;;0.75;;
31270;SDS011;17904;47.420;9.310;2022-10-15T14:54:14;2.25;;;0.80;;
31270;SDS011;17904;47.420;9.310;2022-10-15T14:56:48;5.43;;;0.88;;
31270;SDS011;17904;47.420;9.310;2022-10-15T14:59:17;3.10;;;0.85;;
31270;SDS011;17904;47.420;9.310;2022-10-15T15:01:55;1.15;;;0.70;;
31270;SDS011;17904;47.420;9.310;2022-10-15T15:04:32;12.60;;;0.95;;
31270;SDS011;17904;47.420;9.310;2022-10-15T15:07:01;3.58;;;0.95;;
31270;SDS011;17904;47.420;9.310;2022-10-15T15:09:31;1.92;;;0.60;;
31270;SDS011;17904;47.420;9.310;2022-10-15T15:14:25;5.45;;;1.10;;
31270;SDS011;17904;47.420;9.310;2022-10-15T15:16:52;5.43;;;0.88;;
31270;SDS011;17904;47.420;9.310;2022-10-15T15:19:18;7.53;;;1.00;;
31270;SDS011;17904;47.420;9.310;2022-10-15T15:24:12;7.30;;;1.15;;
31270;SDS011;17904;47.420;9.310;2022-10-15T15:26:39;4.05;;;0.70;;
31270;SDS011;17904;47.420;9.310;2022-10-15T15:29:11;1.75;;;0.80;;
31270;SDS011;17904;47.420;9.310;2022-10-15T15:31:42;2.72;;;0.80;;
31270;SDS011;17904;47.420;9.310;2022-10-15T15:36:36;4.43;;;0.77;;
31270;SDS011;17904;47.420;9.310;2022-10-15T15:39:03;3.95;;;1.00;;
31270;SDS011;17904;47.420;9.310;2022-10-15T15:43:58;1.85;;;0.77;;
31270;SDS011;17904;47.420;9.310;2022-10-15T15:48:52;0.80;;;0.70;;
31270;SDS011;17904;47.420;9.310;2022-10-15T15:53:47;1.95;;;0.75;;
31270;SDS011;17904;47.420;9.310;2022-10-15T15:56:14;4.60;;;0.90;;
31270;SDS011;17904;47.420;9.310;2022-10-15T15:58:40;2.25;;;0.88;;
31270;SDS011;17904;47.420;9.310;2022-10-15T16:01:07;1.70;;;0.90;;
31270;SDS011;17904;47.420;9.310;2022-10-15T16:03:34;8.20;;;1.05;;
31270;SDS011;17904;47.420;9.310;2022-10-15T16:06:03;3.58;;;1.08;;
31270;SDS011;17904;47.420;9.310;2022-10-15T16:08:31;2.15;;;1.20;;
31270;SDS011;17904;47.420;9.310;2022-10-15T16:11:02;6.55;;;1.48;;
31270;SDS011;17904;47.420;9.310;2022-10-15T16:13:30;2.60;;;1.30;;
31270;SDS011;17904;47.420;9.310;2022-10-15T16:15:57;2.20;;;1.25;;
31270;SDS011;17904;47.420;9.310;2022-10-15T16:18:24;3.88;;;1.40;;
31270;SDS011;17904;47.420;9.310;2022-10-15T16:20:51;9.73;;;1.52;;
31270;SDS011;17904;47.420;9.310;2022-10-15T16:23:18;4.18;;;1.30;;
31270;SDS011;17904;47.420;9.310;2022-10-15T16:25:45;2.65;;;1.08;;
31270;SDS011;17904;47.420;9.310;2022-10-15T16:28:12;4.65;;;1.27;;
31270;SDS011;17904;47.420;9.310;2022-10-15T16:30:39;10.38;;;1.42;;
31270;SDS011;17904;47.420;9.310;2022-10-15T16:33:05;4.90;;;1.50;;
31270;SDS011;17904;47.420;9.310;2022-10-15T16:35:34;4.38;;;1.70;;
31270;SDS011;17904;47.420;9.310;2022-10-15T16:38:01;5.95;;;1.60;;
31270;SDS011;17904;47.420;9.310;2022-10-15T16:42:54;4.13;;;1.08;;
31270;SDS011;17904;47.420;9.310;2022-10-15T16:47:47;7.88;;;1.27;;
31270;SDS011;17904;47.420;9.310;2022-10-15T16:50:15;4.80;;;1.45;;
31270;SDS011;17904;47.420;9.310;2022-10-15T16:52:42;3.70;;;1.30;;
31270;SDS011;17904;47.420;9.310;2022-10-15T16:55:09;3.83;;;1.35;;
31270;SDS011;17904;47.420;9.310;2022-10-15T16:57:36;7.85;;;1.15;;
31270;SDS011;17904;47.420;9.310;2022-10-15T17:02:30;7.25;;;2.13;;
31270;SDS011;17904;47.420;9.310;2022-10-15T17:07:23;4.28;;;1.60;;
31270;SDS011;17904;47.420;9.310;2022-10-15T17:09:51;3.15;;;1.52;;
31270;SDS011;17904;47.420;9.310;2022-10-15T17:14:47;5.40;;;1.70;;
31270;SDS011;17904;47.420;9.310;2022-10-15T17:17:16;5.03;;;1.02;;
31270;SDS011;17904;47.420;9.310;2022-10-15T17:19:43;3.95;;;1.25;;
31270;SDS011;17904;47.420;9.310;2022-10-15T17:22:10;4.10;;;1.42;;
31270;SDS011;17904;47.420;9.310;2022-10-15T17:24:37;2.42;;;1.73;;
31270;SDS011;17904;47.420;9.310;2022-10-15T17:27:03;3.95;;;1.67;;
31270;SDS011;17904;47.420;9.310;2022-10-15T17:29:30;3.97;;;1.85;;
31270;SDS011;17904;47.420;9.310;2022-10-15T17:31:58;5.93;;;1.95;;
31270;SDS011;17904;47.420;9.310;2022-10-15T17:34:26;5.47;;;1.77;;
31270;SDS011;17904;47.420;9.310;2022-10-15T17:36:53;7.13;;;1.58;;
31270;SDS011;17904;47.420;9.310;2022-10-15T17:39:21;6.57;;;1.90;;
31270;SDS011;17904;47.420;9.310;2022-10-15T17:41:48;8.00;;;1.70;;
31270;SDS011;17904;47.420;9.310;2022-10-15T17:44:16;4.53;;;2.20;;
31270;SDS011;17904;47.420;9.310;2022-10-15T17:46:43;2.58;;;2.10;;
31270;SDS011;17904;47.420;9.310;2022-10-15T17:49:10;2.75;;;1.60;;
31270;SDS011;17904;47.420;9.310;2022-10-15T17:51:40;3.63;;;2.05;;
31270;SDS011;17904;47.420;9.310;2022-10-15T17:54:07;8.18;;;2.25;;
31270;SDS011;17904;47.420;9.310;2022-10-15T17:56:34;3.92;;;1.73;;
31270;SDS011;17904;47.420;9.310;2022-10-15T17:59:04;5.28;;;1.88;;
31270;SDS011;17904;47.420;9.310;2022-10-15T18:01:35;5.20;;;1.88;;
31270;SDS011;17904;47.420;9.310;2022-10-15T18:04:23;3.28;;;1.55;;
31270;SDS011;17904;47.420;9.310;2022-10-15T18:06:50;5.25;;;1.45;;
31270;SDS011;17904;47.420;9.310;2022-10-15T18:09:24;3.35;;;1.23;;
31270;SDS011;17904;47.420;9.310;2022-10-15T18:11:56;3.85;;;1.30;;
31270;SDS011;17904;47.420;9.310;2022-10-15T18:14:26;4.45;;;1.38;;
31270;SDS011;17904;47.420;9.310;2022-10-15T18:16:53;2.65;;;1.60;;
31270;SDS011;17904;47.420;9.310;2022-10-15T18:19:20;1.67;;;1.33;;
31270;SDS011;17904;47.420;9.310;2022-10-15T18:21:47;7.47;;;1.50;;
31270;SDS011;17904;47.420;9.310;2022-10-15T18:24:15;5.78;;;1.38;;
31270;SDS011;17904;47.420;9.310;2022-10-15T18:26:46;1.77;;;1.50;;
31270;SDS011;17904;47.420;9.310;2022-10-15T18:31:41;6.15;;;1.25;;
31270;SDS011;17904;47.420;9.310;2022-10-15T18:34:08;3.90;;;1.45;;
31270;SDS011;17904;47.420;9.310;2022-10-15T18:39:03;3.47;;;1.13;;
31270;SDS011;17904;47.420;9.310;2022-10-15T18:41:30;6.38;;;2.10;;
31270;SDS011;17904;47.420;9.310;2022-10-15T18:44:01;1.92;;;1.02;;
31270;SDS011;17904;47.420;9.310;2022-10-15T18:46:31;4.80;;;1.55;;
31270;SDS011;17904;47.420;9.310;2022-10-15T18:48:59;12.57;;;1.63;;
31270;SDS011;17904;47.420;9.310;2022-10-15T18:51:28;6.40;;;1.27;;
31270;SDS011;17904;47.420;9.310;2022-10-15T18:53:57;2.13;;;1.35;;